createdAt,value
2022-12-15T00:03:43.785Z,-4.98
2022-12-15T00:09:14.085Z,-4.97
2022-12-15T00:14:38.586Z,-4.95
2022-12-15T00:20:02.911Z,-4.95
2022-12-15T00:25:28.652Z,-4.96
2022-12-15T00:30:55.061Z,-4.94
2022-12-15T00:36:23.292Z,-4.91
2022-12-15T00:41:31.134Z,-4.94
2022-12-15T00:46:56.071Z,-4.89
2022-12-15T00:52:19.740Z,-4.91
2022-12-15T00:57:45.328Z,-4.92
2022-12-15T01:03:09.265Z,-4.90
2022-12-15T01:08:34.412Z,-4.99
2022-12-15T01:13:59.639Z,-5.00
2022-12-15T01:19:23.421Z,-4.98
2022-12-15T01:24:29.975Z,-4.95
2022-12-15T01:29:37.759Z,-4.94
2022-12-15T01:34:45.495Z,-4.96
2022-12-15T01:40:09.379Z,-4.97
2022-12-15T01:45:49.354Z,-4.92
2022-12-15T01:51:03.963Z,-4.94
2022-12-15T01:56:12.928Z,-4.94
2022-12-15T02:01:21.111Z,-4.93
2022-12-15T02:06:28.884Z,-4.92
2022-12-15T02:12:00.902Z,-4.94
2022-12-15T02:17:22.767Z,-4.94
2022-12-15T02:22:47.723Z,-4.92
2022-12-15T02:28:03.711Z,-4.96
2022-12-15T02:33:18.968Z,-4.94
2022-12-15T02:38:35.330Z,-4.93
2022-12-15T02:43:42.323Z,-4.94
2022-12-15T02:49:02.905Z,-4.92
2022-12-15T02:54:45.500Z,-4.94
2022-12-15T02:59:59.517Z,-4.95
2022-12-15T03:05:08.982Z,-4.91
2022-12-15T03:10:17.418Z,-4.89
2022-12-15T03:15:24.223Z,-4.89
2022-12-15T03:20:32.298Z,-4.87
2022-12-15T03:25:38.663Z,-4.87
2022-12-15T03:30:45.734Z,-4.86
2022-12-15T03:35:58.432Z,-4.83
2022-12-15T03:41:07.562Z,-4.79
2022-12-15T03:46:15.430Z,-4.79
2022-12-15T03:51:23.651Z,-4.76
2022-12-15T03:56:29.881Z,-4.77
2022-12-15T04:01:38.001Z,-4.76
2022-12-15T04:06:46.512Z,-4.77
2022-12-15T04:11:53.014Z,-4.77
2022-12-15T04:17:01.496Z,-4.76
2022-12-15T04:22:13.716Z,-4.73
2022-12-15T04:27:39.980Z,-4.73
2022-12-15T04:33:04.215Z,-4.73
2022-12-15T04:38:29.384Z,-4.70
2022-12-15T04:43:52.812Z,-4.70
2022-12-15T04:49:19.538Z,-4.69
2022-12-15T04:54:44.419Z,-4.69
2022-12-15T05:00:08.159Z,-4.68
2022-12-15T05:05:31.882Z,-4.68
2022-12-15T05:10:57.250Z,-4.67
2022-12-15T05:16:21.477Z,-4.61
2022-12-15T05:21:47.125Z,-4.63
2022-12-15T05:27:12.270Z,-4.63
2022-12-15T05:32:18.873Z,-4.62
2022-12-15T05:37:25.807Z,-4.61
2022-12-15T05:42:33.614Z,-4.62
2022-12-15T05:47:39.757Z,-4.63
2022-12-15T05:52:49.531Z,-4.60
2022-12-15T05:57:58.031Z,-4.58
2022-12-15T06:03:05.016Z,-4.57
2022-12-15T06:08:11.763Z,-4.54
2022-12-15T06:13:19.616Z,-4.53
2022-12-15T06:18:27.200Z,-4.53
2022-12-15T06:23:35.446Z,-4.53
2022-12-15T06:28:44.109Z,-4.50
2022-12-15T06:33:54.655Z,-4.50
2022-12-15T06:39:06.951Z,-4.50
2022-12-15T06:44:17.641Z,-4.51
2022-12-15T06:49:23.988Z,-4.49
2022-12-15T06:54:30.538Z,-4.45
2022-12-15T06:59:38.456Z,-4.46
2022-12-15T07:04:45.333Z,-4.44
2022-12-15T07:09:52.114Z,-4.42
2022-12-15T07:15:00.149Z,-4.43
2022-12-15T07:20:07.873Z,-4.42
2022-12-15T07:25:15.598Z,-4.38
2022-12-15T07:30:23.617Z,-4.37
2022-12-15T07:35:31.359Z,-4.38
2022-12-15T07:40:39.195Z,-4.31
2022-12-15T07:45:51.377Z,-4.26
2022-12-15T07:51:07.553Z,-4.20
2022-12-15T07:56:20.193Z,-4.15
2022-12-15T08:01:28.928Z,-4.11
2022-12-15T08:06:38.063Z,-4.10
2022-12-15T08:11:44.747Z,-4.05
2022-12-15T08:16:53.145Z,-4.02
2022-12-15T08:21:59.763Z,-3.98
2022-12-15T08:27:06.495Z,-3.94
2022-12-15T08:32:14.762Z,-3.93
2022-12-15T08:37:21.148Z,-3.91
2022-12-15T08:42:28.047Z,-3.92
2022-12-15T08:47:36.026Z,-3.92
2022-12-15T08:53:00.695Z,-3.96
2022-12-15T08:58:09.374Z,-3.93
2022-12-15T09:03:17.280Z,-3.90
2022-12-15T09:08:23.799Z,-3.91
2022-12-15T09:13:31.273Z,-3.91
2022-12-15T09:18:39.838Z,-3.91
2022-12-15T09:23:52.274Z,-3.91
2022-12-15T09:28:58.971Z,-3.88
2022-12-15T09:34:09.818Z,-3.88
2022-12-15T09:39:17.369Z,-3.87
2022-12-15T09:44:26.403Z,-3.88
2022-12-15T09:49:43.586Z,-3.89
2022-12-15T09:54:50.009Z,-3.88
2022-12-15T10:00:22.035Z,-3.92
2022-12-15T10:06:06.912Z,-3.92
2022-12-15T10:11:42.074Z,-3.90
2022-12-15T10:17:00.459Z,-3.91
2022-12-15T10:22:13.540Z,-3.92
2022-12-15T10:27:42.828Z,-3.95
2022-12-15T10:32:56.392Z,-3.95
2022-12-15T10:38:11.623Z,-3.96
2022-12-15T10:43:33.008Z,-3.97
2022-12-15T10:48:39.880Z,-3.96
2022-12-15T10:53:53.094Z,-3.94
2022-12-15T10:59:01.591Z,-3.94
2022-12-15T11:04:30.704Z,-3.94
2022-12-15T11:09:41.051Z,-3.92
2022-12-15T11:14:51.138Z,-3.96
2022-12-15T11:20:05.631Z,-4.02
2022-12-15T11:25:26.561Z,-3.97
2022-12-15T11:30:39.865Z,-4.01
2022-12-15T11:36:08.057Z,-4.00
2022-12-15T11:41:36.770Z,-4.02
2022-12-15T11:46:52.086Z,-4.01
2022-12-15T11:52:12.034Z,-4.00
2022-12-15T11:57:54.624Z,-4.00
2022-12-15T12:03:27.015Z,-4.03
2022-12-15T12:09:13.517Z,-4.03
2022-12-15T12:14:39.779Z,-3.99
2022-12-15T12:19:52.712Z,-3.99
2022-12-15T12:25:04.904Z,-3.99
2022-12-15T12:30:20.098Z,-4.00
2022-12-15T12:35:34.781Z,-3.97
2022-12-15T12:41:01.995Z,-3.99
2022-12-15T12:46:18.063Z,-3.95
2022-12-15T12:51:31.642Z,-3.96
2022-12-15T12:56:44.354Z,-3.94
2022-12-15T13:01:54.011Z,-3.94
2022-12-15T13:07:10.243Z,-3.96
2022-12-15T13:12:53.923Z,-3.95
2022-12-15T13:18:16.438Z,-3.98
2022-12-15T13:24:00.322Z,-3.98
2022-12-15T13:29:16.350Z,-3.99
2022-12-15T13:34:28.131Z,-3.84
2022-12-15T13:39:59.354Z,-3.85
2022-12-15T13:45:36.895Z,-3.85
2022-12-15T13:50:53.678Z,-3.90
2022-12-15T13:56:51.051Z,-3.94
2022-12-15T14:01:57.714Z,-3.96
2022-12-15T14:07:08.918Z,-3.95
2022-12-15T14:12:16.672Z,-3.96
2022-12-15T14:17:23.892Z,-3.93
2022-12-15T14:22:32.892Z,-3.95
2022-12-15T14:27:39.378Z,-3.97
2022-12-15T14:32:47.864Z,-3.99
2022-12-15T14:38:02.298Z,-4.03
2022-12-15T14:43:21.431Z,-4.05
2022-12-15T14:48:42.544Z,-4.08
2022-12-15T14:53:54.356Z,-4.07
2022-12-15T14:59:05.111Z,-4.06
2022-12-15T15:04:29.526Z,-4.04
2022-12-15T15:09:44.560Z,-4.03
2022-12-15T15:14:54.845Z,-4.03
2022-12-15T15:20:04.341Z,-4.01
2022-12-15T15:25:41.506Z,-4.01
2022-12-15T15:30:49.966Z,-4.04
2022-12-15T15:35:59.635Z,-4.04
2022-12-15T15:41:18.588Z,-4.00
2022-12-15T15:46:26.035Z,-4.02
2022-12-15T15:51:35.912Z,-4.04
2022-12-15T15:56:44.370Z,-4.03
2022-12-15T16:01:58.122Z,-4.04
2022-12-15T16:07:06.315Z,-4.03
2022-12-15T16:12:28.255Z,-4.01
2022-12-15T16:17:35.051Z,-3.99
2022-12-15T16:22:42.825Z,-4.01
2022-12-15T16:27:51.209Z,-4.01
2022-12-15T16:32:58.675Z,-3.96
2022-12-15T16:38:06.514Z,-3.94
2022-12-15T16:43:18.197Z,-3.96
2022-12-15T16:48:25.470Z,-3.94
2022-12-15T16:53:37.651Z,-3.95
2022-12-15T16:58:49.072Z,-3.94
2022-12-15T17:04:00.544Z,-3.90
2022-12-15T17:09:09.057Z,-3.91
2022-12-15T17:14:17.554Z,-3.90
2022-12-15T17:19:24.970Z,-3.90
2022-12-15T17:24:32.140Z,-3.90
2022-12-15T17:29:41.703Z,-3.94
2022-12-15T17:34:48.848Z,-3.92
2022-12-15T17:39:57.503Z,-3.91
2022-12-15T17:45:16.764Z,-3.91
2022-12-15T17:50:25.575Z,-3.90
2022-12-15T17:55:35.282Z,-3.91
2022-12-15T18:00:49.061Z,-3.92
2022-12-15T18:05:57.075Z,-3.93
2022-12-15T18:11:03.780Z,-3.93
2022-12-15T18:16:13.583Z,-3.92
2022-12-15T18:21:22.569Z,-3.95
2022-12-15T18:26:38.235Z,-3.93
2022-12-15T18:31:48.799Z,-3.92
2022-12-15T18:36:57.602Z,-3.93
2022-12-15T18:42:08.535Z,-3.95
2022-12-15T18:47:21.819Z,-3.95
2022-12-15T18:52:34.674Z,-3.95
2022-12-15T18:57:42.362Z,-3.96
2022-12-15T19:02:51.841Z,-3.93
2022-12-15T19:08:05.078Z,-3.97
2022-12-15T19:13:17.498Z,-3.97
2022-12-15T19:18:45.574Z,-4.00
2022-12-15T19:23:53.737Z,-4.02
2022-12-15T19:29:04.073Z,-3.99
2022-12-15T19:34:19.887Z,-4.03
2022-12-15T19:39:30.647Z,-4.03
2022-12-15T19:44:40.318Z,-4.05
2022-12-15T19:49:50.409Z,-4.03
2022-12-15T19:55:01.312Z,-3.98
2022-12-15T20:00:18.423Z,-4.02
2022-12-15T20:05:29.364Z,-4.04
2022-12-15T20:10:37.887Z,-4.04
2022-12-15T20:15:45.946Z,-4.01
2022-12-15T20:20:56.220Z,-3.97
2022-12-15T20:26:03.804Z,-4.00
2022-12-15T20:31:17.119Z,-4.01
2022-12-15T20:36:29.100Z,-4.04
2022-12-15T20:41:39.132Z,-4.09
2022-12-15T20:46:48.720Z,-4.19
2022-12-15T20:52:00.547Z,-4.25
2022-12-15T20:57:08.472Z,-4.31
2022-12-15T21:02:21.836Z,-4.44
2022-12-15T21:07:30.292Z,-4.53
2022-12-15T21:12:42.345Z,-4.60
2022-12-15T21:17:57.340Z,-4.63
2022-12-15T21:23:24.539Z,-4.83
2022-12-15T21:28:31.012Z,-4.87
2022-12-15T21:33:37.740Z,-4.96
2022-12-15T21:38:49.219Z,-5.22
2022-12-15T21:43:55.954Z,-5.24
2022-12-15T21:49:18.672Z,-5.49
2022-12-15T21:54:31.450Z,-5.48
2022-12-15T21:59:41.923Z,-5.55
2022-12-15T22:04:52.062Z,-5.63
2022-12-15T22:09:59.946Z,-5.79
2022-12-15T22:15:14.732Z,-5.61
2022-12-15T22:20:24.467Z,-5.56
2022-12-15T22:25:32.648Z,-5.87
2022-12-15T22:30:39.541Z,-5.82
2022-12-15T22:35:46.134Z,-5.74
2022-12-15T22:40:58.955Z,-6.06
2022-12-15T22:46:08.319Z,-6.31
2022-12-15T22:51:17.649Z,-6.52
2022-12-15T22:56:32.376Z,-6.32
2022-12-15T23:01:39.432Z,-6.40
2022-12-15T23:06:46.540Z,-6.32
2022-12-15T23:11:54.287Z,-6.38
2022-12-15T23:17:01.352Z,-6.33
2022-12-15T23:22:07.906Z,-6.29
2022-12-15T23:27:15.937Z,-6.32
2022-12-15T23:32:22.283Z,-6.36
2022-12-15T23:37:28.733Z,-6.36
2022-12-15T23:42:37.446Z,-6.30
2022-12-15T23:47:44.153Z,-6.26
2022-12-15T23:52:51.767Z,-6.37
2022-12-15T23:58:00.594Z,-6.49
